Latest Weather Observations for PORTABLE RFSNSW16

IDN60801

Issued at 6:23 pm EST Saturday 9 May 2026 (issued every 10 minutes, with the page automatically refreshed every 10 minutes)

About weather observations | Map of weather stations | Latest weather observations for NSW | Other Formats
Station Details ID: 250081 Name: PORTABLE RFSNSW16 Lat: -35.21 Lon: 148.64 Height: 858.0 m

Portable automatic weather stations (PAWS) are operated by other organisations, such as Fire and Emergency Services, and are included here by agreement. Portable stations may be deployed to a location for a short period and their location may be subject to change without notice. Wind observations from these stations are provided from heights of either three (3) or ten (10) metres above ground level (AGL).

Data from the previous 72 hours. | See also: Recent months for locations in New South Wales
Date/Time
EST
Temp
°C
App
Temp
°C
Dew
Point
°C
Rel
Hum
%
Delta-T
°C
Wind Press
QNH
hPa
Press
MSL
hPa
Rain since
9am
mm
Dir  Spd
km/h
Gust
km/h
Spd
kts
Gust
kts
09/06:00pm 8.8 7.5 7.6 92 0.6 S 4 4 2 2 - - 0.0
09/05:50pm 9.2 8.0 8.1 93 0.6 SSW 4 4 2 2 - - 0.0
09/05:40pm 9.4 8.2 8.0 91 0.7 S 4 4 2 2 - - 0.0
09/05:30pm 10.0 9.2 8.3 89 0.9 S 2 4 1 2 - - 0.0
09/05:20pm 10.8 9.7 8.5 86 1.2 S 4 6 2 3 - - 0.0
09/05:10pm 11.5 10.8 8.5 82 1.6 S 2 4 1 2 - - 0.0
09/05:00pm 11.8 10.7 8.5 80 1.7 NW 4 4 2 2 - - 0.0
09/04:50pm 12.3 11.2 8.5 77 2.0 NNW 4 4 2 2 - - 0.0
09/04:40pm 12.6 11.5 8.4 75 2.2 NNW 4 6 2 3 - - 0.0
09/04:30pm 12.8 11.7 8.4 74 2.3 NNW 4 7 2 4 - - 0.0
09/04:20pm 13.1 11.6 8.5 73 2.4 NNW 6 6 3 3 - - 0.0
09/04:10pm 13.4 12.3 8.6 73 2.5 NNW 4 6 2 3 - - 0.0
09/04:00pm 13.9 12.5 8.7 71 2.7 NNW 6 7 3 4 - - 0.0
09/03:50pm 14.3 12.8 8.5 68 3.1 NNW 6 6 3 3 - - 0.0
09/03:30pm 15.6 14.1 8.6 63 3.7 NNW 6 9 3 5 - - 0.0
09/03:20pm 15.8 14.3 8.6 62 3.8 NNW 6 6 3 3 - - 0.0
09/03:10pm 15.7 14.2 8.4 62 3.9 N 6 7 3 4 - - 0.0
09/03:00pm 15.5 13.8 8.3 62 3.8 N 7 11 4 6 - - 0.0
09/02:50pm 15.8 14.1 8.3 61 4.0 N 7 7 4 4 - - 0.0
09/02:40pm 16.0 14.3 8.2 60 4.1 NNW 7 7 4 4 - - 0.0
09/02:30pm 16.1 14.5 8.8 62 3.9 N 7 9 4 5 - - 0.0
09/02:20pm 16.4 14.9 8.6 60 4.2 NW 6 9 3 5 - - 0.0
09/02:10pm 16.3 14.9 8.8 61 4.0 NNW 6 9 3 5 - - 0.0
09/02:00pm 16.2 14.6 8.9 62 3.9 NNW 7 9 4 5 - - 0.0
09/01:50pm 16.2 14.7 9.1 63 3.8 N 7 9 4 5 - - 0.0
09/01:40pm 16.1 14.7 9.0 62 3.8 NNW 6 7 3 4 - - 0.0
09/01:30pm 15.9 14.6 9.3 65 3.6 N 6 9 3 5 - - 0.0
09/01:20pm 16.0 14.6 9.0 63 3.8 NNW 6 7 3 4 - - 0.0
09/01:00pm 15.9 14.2 8.2 60 4.1 NNW 7 9 4 5 - - 0.0
09/12:50pm 15.8 14.4 8.9 63 3.7 NW 6 7 3 4 - - 0.0
09/12:20pm 15.5 14.5 8.8 64 3.6 WNW 4 7 2 4 - - 0.0
09/12:00pm 14.9 13.4 8.4 65 3.4 NNW 6 7 3 4 - - 0.0
09/11:40am 14.4 12.9 8.5 67 3.1 N 6 11 3 6 - - 0.0
09/11:30am 13.9 12.0 7.7 66 3.2 N 7 11 4 6 - - 0.0
09/11:20am 13.9 12.0 7.6 66 3.3 N 7 7 4 4 - - 0.0
09/11:10am 13.7 11.7 7.2 65 3.3 N 7 7 4 4 - - 0.0
09/10:50am 13.7 11.9 7.1 64 3.4 N 6 7 3 4 - - 0.0
09/10:30am 13.4 12.2 8.0 70 2.8 N 4 6 2 3 - - 0.0
09/10:20am 13.0 11.6 7.2 68 3.0 NW 4 6 2 3 - - 0.0
09/10:10am 12.8 11.6 8.0 72 2.5 ENE 4 6 2 3 - - 0.0
09/10:00am 12.7 11.4 7.6 71 2.6 NW 4 6 2 3 - - 0.0
09/09:50am 12.2 10.8 7.3 72 2.5 NNE 4 6 2 3 - - 0.0
09/08:50am 10.5 9.2 7.5 82 1.5 NE 4 4 2 2 - - 0.0
09/08:40am 10.1 9.1 7.3 83 1.4 NE 2 4 1 2 - - 0.0
09/08:30am 9.4 8.6 8.0 91 0.7 E 2 2 1 1 - - 0.0
09/08:20am 8.7 7.8 7.9 95 0.4 E 2 4 1 2 - - 0.0
09/08:10am 7.9 6.9 7.4 97 0.2 ESE 2 2 1 1 - - 0.0
09/08:00am 7.0 5.4 6.5 97 0.2 S 4 4 2 2 - - 0.0
09/07:50am 6.5 5.2 6.1 97 0.2 SSW 2 4 1 2 - - 0.0
09/07:40am 5.7 3.9 5.4 98 0.1 S 4 4 2 2 - - 0.0
09/07:20am 4.4 2.7 4.2 99 0.1 SW 2 4 1 2 - - 0.0
09/07:10am 3.9 2.1 3.7 99 0.1 WSW 2 4 1 2 - - 0.0
09/06:40am 4.4 2.0 4.3 99 0.0 SSW 6 7 3 4 - - 0.0
09/06:30am 3.9 2.2 3.8 99 0.0 S 2 2 1 1 - - 0.0
09/06:20am 4.0 2.3 3.8 99 0.1 S 2 4 1 2 - - 0.0
09/06:10am 4.3 2.2 4.1 99 0.1 S 4 6 2 3 - - 0.0
09/06:00am 4.0 1.9 3.8 99 0.1 SSE 4 6 2 3 - - 0.0
09/05:50am 4.0 1.9 3.8 99 0.1 SSW 4 6 2 3 - - 0.0
09/05:40am 4.3 2.2 4.1 99 0.1 S 4 4 2 2 - - 0.0
09/05:30am 4.0 2.3 3.8 99 0.1 SSW 2 4 1 2 - - 0.0
09/05:20am 4.0 1.9 3.8 99 0.1 S 4 6 2 3 - - 0.0
09/04:50am 4.5 2.5 4.3 99 0.1 SSW 4 4 2 2 - - 0.0
09/04:40am 4.6 2.2 4.3 98 0.1 S 6 6 3 3 - - 0.0
09/04:30am 4.5 2.9 4.3 99 0.1 S 2 4 1 2 - - 0.0
09/04:10am 4.8 3.2 4.6 99 0.1 S 2 4 1 2 - - 0.0
09/03:50am 5.0 3.4 4.7 98 0.1 S 2 2 1 1 - - 0.0
09/03:40am 5.1 3.2 4.8 98 0.1 W 4 4 2 2 - - 0.0
09/03:20am 4.8 3.2 4.5 98 0.1 S 2 2 1 1 - - 0.0
09/03:10am 5.0 3.4 4.7 98 0.1 SSW 2 4 1 2 - - 0.0
09/03:00am 5.2 3.7 4.8 97 0.2 SSW 2 4 1 2 - - 0.0
09/02:50am 5.4 3.5 5.1 98 0.1 SSW 4 4 2 2 - - 0.0
09/02:40am 5.9 4.5 5.6 98 0.1 S 2 4 1 2 - - 0.0
09/02:30am 6.0 4.6 5.7 98 0.1 S 2 4 1 2 - - 0.0
09/02:20am 6.3 5.0 6.0 98 0.1 SW 2 4 1 2 - - 0.0
09/02:10am 6.4 4.7 6.1 98 0.1 S 4 4 2 2 - - 0.0
09/02:00am 6.3 4.6 5.9 97 0.2 SW 4 4 2 2 - - 0.0
09/01:50am 6.1 4.7 5.7 97 0.2 E 2 4 1 2 - - 0.0
09/01:40am 6.0 5.0 5.7 98 0.1 CALM 0 0 0 0 - - 0.0
09/01:30am 6.0 4.3 5.7 98 0.1 S 4 6 2 3 - - 0.0
09/01:20am 6.0 4.2 5.6 97 0.2 SSW 4 6 2 3 - - 0.0
09/01:10am 6.0 4.6 5.5 97 0.2 WSW 2 6 1 3 - - 0.0
09/01:00am 6.0 4.6 5.6 97 0.2 SW 2 4 1 2 - - 0.0
09/12:50am 5.9 4.5 5.4 97 0.2 NW 2 4 1 2 - - 0.0
09/12:40am 6.1 4.3 5.6 97 0.2 SW 4 4 2 2 - - 0.0
09/12:30am 6.2 4.1 5.7 97 0.2 S 6 6 3 3 - - 0.0
09/12:20am 6.0 4.2 5.3 95 0.3 S 4 6 2 3 - - 0.0
09/12:10am 6.5 4.4 5.9 96 0.3 S 6 6 3 3 - - 0.0
09/12:00am 6.6 4.5 5.9 95 0.3 S 6 7 3 4 - - 0.0
 
Date/Time
EST
Temp
°C
App
Temp
°C
Dew
Point
°C
Rel
Hum
%
Delta-T
°C
Wind Press
QNH
hPa
Press
MSL
hPa
Rain since
9am
mm
Dir  Spd
km/h
Gust
km/h
Spd
kts
Gust
kts
08/11:50pm 6.6 4.5 5.9 95 0.3 S 6 6 3 3 - - 0.0
08/11:40pm 6.7 4.6 5.9 95 0.4 SSW 6 7 3 4 - - 0.0
08/11:30pm 6.7 5.4 6.0 95 0.3 SW 2 4 1 2 - - 0.0
08/11:20pm 6.7 5.0 6.0 95 0.3 S 4 6 2 3 - - 0.0
08/11:10pm 6.9 5.2 6.1 95 0.4 S 4 6 2 3 - - 0.0
08/10:50pm 7.7 6.1 6.5 92 0.6 WSW 4 6 2 3 - - 0.0
08/10:40pm 8.1 6.6 6.8 91 0.6 WSW 4 4 2 2 - - 0.0
08/10:30pm 8.2 7.1 6.9 91 0.6 W 2 4 1 2 - - 0.0
08/10:20pm 8.2 7.1 7.0 92 0.6 W 2 6 1 3 - - 0.0
08/10:00pm 8.2 7.2 7.3 94 0.4 SW 2 4 1 2 - - 0.0
08/09:50pm 8.3 7.3 7.3 93 0.5 W 2 2 1 1 - - 0.0
08/09:40pm 8.4 7.4 7.2 92 0.6 WSW 2 6 1 3 - - 0.0
08/09:30pm 8.5 7.5 7.2 91 0.6 W 2 4 1 2 - - 0.0
08/09:10pm 8.6 7.6 7.2 91 0.7 NW 2 4 1 2 - - 0.0
08/09:00pm 8.6 7.2 7.1 90 0.7 W 4 6 2 3 - - 0.0
08/08:50pm 8.6 7.2 7.2 91 0.7 W 4 6 2 3 - - 0.0
08/08:40pm 8.4 7.0 7.1 91 0.6 W 4 6 2 3 - - 0.0
08/08:30pm 8.3 7.2 7.1 92 0.6 WNW 2 4 1 2 - - 0.0
08/08:20pm 8.2 6.8 7.1 93 0.5 N 4 4 2 2 - - 0.0
08/08:10pm 8.2 6.8 7.1 93 0.5 W 4 6 2 3 - - 0.0
08/08:00pm 8.1 6.7 7.1 93 0.5 W 4 4 2 2 - - 0.0
08/07:50pm 8.0 6.9 6.9 93 0.5 WSW 2 4 1 2 - - 0.0
08/07:30pm 8.0 6.9 6.9 93 0.5 W 2 6 1 3 - - 0.0
08/07:20pm 7.9 6.8 6.7 92 0.6 NW 2 4 1 2 - - 0.0
08/07:10pm 7.7 6.2 6.6 93 0.5 W 4 7 2 4 - - 0.0
08/06:50pm 7.1 6.2 6.1 93 0.5 CALM 0 2 0 1 - - 0.0
08/06:40pm 7.0 5.3 6.1 94 0.4 WSW 4 4 2 2 - - 0.0
08/06:30pm 6.9 5.2 5.9 93 0.5 SW 4 6 2 3 - - 0.0
08/06:20pm 6.9 5.6 5.9 93 0.5 WSW 2 4 1 2 - - 0.0
08/06:10pm 6.9 5.6 5.8 93 0.5 SW 2 4 1 2 - - 0.0
08/06:00pm 7.0 5.7 5.8 92 0.6 WSW 2 4 1 2 - - 0.0
08/05:50pm 7.3 5.6 5.9 91 0.7 W 4 6 2 3 - - 0.0
08/05:40pm 7.4 5.3 5.9 90 0.7 WSW 6 7 3 4 - - 0.0
08/05:20pm 7.6 5.5 6.0 90 0.8 W 6 6 3 3 - - 0.0
08/05:10pm 7.8 5.8 6.1 89 0.8 W 6 7 3 4 - - 0.0
08/05:00pm 7.9 6.2 6.1 88 0.9 WSW 4 7 2 4 - - 0.0
08/04:50pm 8.0 6.0 6.2 88 0.9 WSW 6 7 3 4 - - 0.0
08/04:40pm 8.1 6.1 6.2 88 0.9 W 6 9 3 5 - - 0.0
08/04:30pm 8.1 6.1 6.2 88 0.9 WSW 6 9 3 5 - - 0.0
08/04:20pm 8.2 6.2 6.3 88 0.9 W 6 6 3 3 - - 0.0
08/04:10pm 8.1 6.1 6.3 88 0.9 WSW 6 9 3 5 - - 0.0
08/04:00pm 8.0 6.0 6.2 88 0.9 WSW 6 9 3 5 - - 0.0
08/03:50pm 7.9 5.9 6.3 90 0.8 W 6 13 3 7 - - 0.0
08/03:40pm 7.8 5.6 6.4 91 0.7 WSW 7 13 4 7 - - 0.0
08/03:30pm 7.8 5.9 6.6 92 0.6 WSW 6 7 3 4 - - 0.0
08/03:20pm 7.8 6.3 6.6 92 0.6 WSW 4 9 2 5 - - 0.0
08/03:10pm 7.7 6.2 6.7 93 0.5 WNW 4 7 2 4 - - 0.0
08/03:00pm 7.7 5.8 6.6 93 0.5 WSW 6 7 3 4 - - 0.0
08/02:40pm 7.7 5.7 6.4 91 0.6 WSW 6 11 3 6 - - 0.0
08/02:30pm 7.8 5.6 6.3 90 0.7 WSW 7 11 4 6 - - 0.0
08/02:20pm 7.9 5.9 6.4 90 0.7 W 6 7 3 4 - - 0.0
08/02:10pm 8.0 5.8 6.3 89 0.8 WSW 7 11 4 6 - - 0.0
08/02:00pm 8.3 6.1 6.4 88 0.9 W 7 11 4 6 - - 0.0
08/01:50pm 8.7 6.5 6.2 84 1.2 WSW 7 11 4 6 - - 0.0
08/01:20pm 10.2 8.2 7.0 80 1.6 W 7 9 4 5 - - 0.0
08/01:10pm 10.2 8.2 6.9 80 1.6 WSW 7 9 4 5 - - 0.0
08/12:50pm 9.5 7.7 7.3 86 1.1 WNW 6 7 3 4 - - 0.0
08/12:40pm 9.2 7.3 6.7 84 1.2 W 6 7 3 4 - - 0.0
08/12:30pm 8.8 6.9 6.6 86 1.1 WSW 6 7 3 4 - - 0.0
08/12:20pm 8.4 6.5 6.8 90 0.8 W 6 7 3 4 - - 0.0
08/12:10pm 8.2 6.3 6.8 91 0.7 WNW 6 7 3 4 - - 0.0
08/12:00pm 8.2 6.7 6.8 91 0.7 WNW 4 6 2 3 - - 0.0
08/11:50am 8.1 6.6 6.7 91 0.7 W 4 7 2 4 - - 0.0
08/11:40am 8.0 6.0 6.1 88 0.9 WSW 6 13 3 7 - - 0.0
08/11:30am 7.7 6.0 6.1 90 0.8 W 4 6 2 3 - - 0.0
08/11:20am 7.5 5.8 6.1 91 0.7 NW 4 7 2 4 - - 0.0
08/11:10am 7.3 5.6 5.8 90 0.7 W 4 6 2 3 - - 0.0
08/11:00am 7.1 5.0 5.8 91 0.6 WSW 6 9 3 5 - - 0.0
08/10:50am 6.9 5.2 5.7 92 0.6 WSW 4 9 2 5 - - 0.0
08/10:40am 6.8 5.1 5.7 93 0.5 NW 4 7 2 4 - - 0.0
08/10:10am 6.3 4.5 5.3 93 0.5 WNW 4 7 2 4 - - 0.0
08/10:00am 6.0 4.1 5.0 93 0.5 W 4 6 2 3 - - 0.0
08/09:50am 5.9 4.0 5.0 94 0.4 WNW 4 6 2 3 - - 0.0
08/09:30am 5.6 3.7 4.8 95 0.4 SW 4 6 2 3 - - 0.0
08/09:20am 5.4 3.1 4.6 95 0.4 W 6 13 3 7 - - 0.0
08/09:10am 5.4 3.1 4.6 95 0.4 WSW 6 7 3 4 - - 0.0
08/08:50am 5.2 2.9 4.6 96 0.3 WNW 6 7 3 4 - - 0.0
08/08:40am 5.1 2.8 4.6 97 0.2 W 6 7 3 4 - - 0.0
08/08:30am 5.0 3.0 4.6 97 0.2 WNW 4 6 2 3 - - 0.0
08/08:20am 4.9 2.5 4.4 97 0.2 WNW 6 7 3 4 - - 0.0
08/08:10am 4.7 2.3 4.2 97 0.2 WNW 6 7 3 4 - - 0.0
08/08:00am 4.6 2.5 4.1 97 0.2 W 4 6 2 3 - - 0.0
08/07:50am 4.5 2.0 4.0 97 0.2 WNW 6 7 3 4 - - 0.0
08/07:40am 4.4 2.3 3.9 97 0.2 WSW 4 7 2 4 - - 0.0
08/07:30am 4.3 1.8 3.9 97 0.2 W 6 9 3 5 - - 0.0
08/07:20am 4.3 2.2 3.8 97 0.2 W 4 7 2 4 - - 0.0
08/07:10am 4.3 2.2 3.8 97 0.2 W 4 6 2 3 - - 0.0
08/07:00am 4.2 2.1 3.7 97 0.2 W 4 6 2 3 - - 0.0
08/06:50am 4.2 2.1 3.7 97 0.2 WNW 4 6 2 3 - - 0.0
08/06:40am 4.2 1.7 3.6 96 0.3 WSW 6 7 3 4 - - 0.0
08/06:30am 4.2 2.0 3.6 96 0.3 W 4 7 2 4 - - 0.0
08/06:20am 4.2 2.0 3.6 96 0.3 W 4 6 2 3 - - 0.0
08/06:10am 4.1 1.9 3.6 97 0.2 W 4 7 2 4 - - 0.0
08/06:00am 4.1 1.9 3.6 97 0.2 WSW 4 6 2 3 - - 0.0
08/05:50am 4.1 1.6 3.5 96 0.3 W 6 9 3 5 - - 0.0
08/05:30am 4.0 1.8 3.5 97 0.2 WSW 4 6 2 3 - - 0.0
08/05:20am 3.9 1.7 3.5 97 0.2 SW 4 6 2 3 - - 0.0
08/05:10am 3.9 2.1 3.5 97 0.2 W 2 4 1 2 - - 0.0
08/05:00am 3.9 1.7 3.4 97 0.2 WSW 4 6 2 3 - - 0.0
08/04:50am 3.9 2.1 3.4 97 0.2 W 2 4 1 2 - - 0.0
08/04:40am 3.9 1.7 3.4 97 0.2 WSW 4 6 2 3 - - 0.0
08/04:30am 3.9 1.7 3.3 96 0.3 W 4 6 2 3 - - 0.0
08/04:20am 3.8 1.6 3.3 97 0.2 WSW 4 7 2 4 - - 0.0
08/04:10am 3.8 1.6 3.2 96 0.3 WNW 4 7 2 4 - - 0.0
08/04:00am 3.8 1.2 3.2 96 0.3 W 6 7 3 4 - - 0.0
08/03:50am 3.8 1.2 3.1 95 0.3 W 6 6 3 3 - - 0.0
08/03:40am 3.8 1.2 3.1 95 0.3 W 6 11 3 6 - - 0.0
08/03:30am 3.8 1.2 3.1 95 0.3 WSW 6 7 3 4 - - 0.0
08/03:20am 3.8 1.5 3.0 94 0.3 W 4 6 2 3 - - 0.0
08/03:00am 3.7 1.4 3.0 95 0.3 W 4 7 2 4 - - 0.0
08/02:50am 3.7 0.9 3.0 95 0.3 W 7 11 4 6 - - 0.0
08/02:40am 3.7 1.1 3.0 95 0.3 W 6 9 3 5 - - 0.0
08/02:30am 3.7 1.0 2.9 94 0.3 W 6 11 3 6 - - 0.0
08/02:20am 3.6 0.7 2.8 94 0.3 WSW 7 9 4 5 - - 0.0
08/02:10am 3.6 0.7 2.8 94 0.3 W 7 9 4 5 - - 0.0
08/02:00am 3.7 0.8 2.6 92 0.5 WSW 7 11 4 6 - - 0.0
08/01:50am 3.6 0.9 2.5 92 0.5 W 6 9 3 5 - - 0.0
08/01:40am 3.5 0.8 2.4 92 0.5 WSW 6 9 3 5 - - 0.0
08/01:30am 3.6 0.9 2.4 92 0.5 W 6 7 3 4 - - 0.0
08/01:20am 3.7 0.7 2.2 90 0.6 WSW 7 13 4 7 - - 0.0
08/01:10am 3.8 1.0 2.0 88 0.8 WSW 6 9 3 5 - - 0.0
08/01:00am 4.0 0.6 1.7 85 1.0 WSW 9 19 5 10 - - 0.0
08/12:50am 4.1 1.0 1.3 82 1.2 WSW 7 9 4 5 - - 0.0
08/12:40am 4.1 1.2 1.4 82 1.1 WSW 6 9 3 5 - - 0.0
08/12:30am 4.0 1.1 1.4 83 1.1 WSW 6 9 3 5 - - 0.0
08/12:20am 4.1 1.2 1.4 82 1.1 WSW 6 7 3 4 - - 0.0
08/12:10am 4.1 1.2 1.2 81 1.2 W 6 7 3 4 - - 0.0
08/12:00am 4.1 1.1 1.1 81 1.2 WSW 6 7 3 4 - - 0.0
 
Date/Time
EST
Temp
°C
App
Temp
°C
Dew
Point
°C
Rel
Hum
%
Delta-T
°C
Wind Press
QNH
hPa
Press
MSL
hPa
Rain since
9am
mm
Dir  Spd
km/h
Gust
km/h
Spd
kts
Gust
kts
07/11:50pm 4.1 0.6 1.1 81 1.2 WSW 9 13 5 7 - - 0.0
07/11:40pm 4.0 0.5 1.0 81 1.2 WSW 9 11 5 6 - - 0.0
07/11:30pm 3.9 1.0 1.2 82 1.1 WSW 6 7 3 4 - - 0.0
07/11:20pm 3.9 0.8 1.2 82 1.1 WSW 7 11 4 6 - - 0.0
07/11:10pm 3.8 0.7 1.1 82 1.1 WSW 7 7 4 4 - - 0.0
07/11:00pm 3.8 0.7 1.2 83 1.1 WSW 7 11 4 6 - - 0.0
07/10:50pm 3.8 0.7 1.3 84 1.0 WSW 7 11 4 6 - - 0.0
07/10:40pm 3.7 0.7 1.1 83 1.1 WSW 6 11 3 6 - - 0.0
07/10:30pm 3.6 0.7 1.3 85 0.9 W 6 7 3 4 - - 0.0
07/10:20pm 3.7 0.6 1.2 84 1.0 WSW 7 13 4 7 - - 0.0
07/10:10pm 3.7 0.5 0.9 82 1.1 WSW 7 11 4 6 - - 0.0
07/10:00pm 3.7 0.5 0.7 81 1.2 WSW 7 11 4 6 - - 0.0
07/09:50pm 3.7 0.5 0.5 79 1.3 WSW 7 11 4 6 - - 0.0
07/09:40pm 3.7 0.5 0.5 79 1.3 WSW 7 13 4 7 - - 0.0
07/09:30pm 3.6 0.0 0.3 79 1.3 WSW 9 15 5 8 - - 0.0
07/09:20pm 3.6 0.3 0.3 79 1.3 W 7 9 4 5 - - 0.0
07/09:10pm 3.5 0.2 0.2 79 1.3 WSW 7 15 4 8 - - 0.0
07/09:00pm 3.4 -0.3 0.0 78 1.3 WSW 9 15 5 8 - - 0.0
07/08:50pm 3.2 -0.1 -0.1 79 1.3 W 7 9 4 5 - - 0.0
07/08:40pm 3.1 -0.6 -0.2 79 1.3 WSW 9 13 5 7 - - 0.0
07/08:30pm 3.0 -0.4 -0.3 79 1.3 WSW 7 9 4 5 - - 0.0
07/08:20pm 3.1 -0.1 -0.4 78 1.4 WSW 6 9 3 5 - - 0.0
07/08:10pm 3.2 -0.2 -0.5 77 1.4 WSW 7 9 4 5 - - 0.0
07/08:00pm 3.1 -0.3 -0.6 77 1.4 WSW 7 11 4 6 - - 0.0
07/07:50pm 3.2 0.0 -0.5 77 1.4 W 6 9 3 5 - - 0.0
07/07:40pm 3.2 -0.2 -0.8 75 1.5 WSW 7 9 4 5 - - 0.0
07/07:30pm 3.2 0.0 -0.8 75 1.5 W 6 9 3 5 - - 0.0
07/07:20pm 3.4 0.0 -0.8 74 1.6 W 7 15 4 8 - - 0.0
07/07:10pm 3.3 0.0 -0.9 74 1.6 W 6 9 3 5 - - 0.0
07/07:00pm 3.5 0.3 -0.8 73 1.7 WSW 6 9 3 5 - - 0.0
07/06:50pm 3.7 0.5 -0.6 73 1.7 WSW 6 9 3 5 - - 0.0
07/06:40pm 3.9 0.5 -0.6 72 1.8 W 7 11 4 6 - - 0.0
07/06:30pm 3.9 0.5 -0.4 73 1.7 WSW 7 11 4 6 - - 0.0
07/06:20pm 3.9 0.7 -0.4 73 1.7 SW 6 9 3 5 - - 0.0
07/06:10pm 3.8 0.6 -0.3 74 1.6 WSW 6 7 3 4 - - 0.0
07/06:00pm 3.9 0.7 -0.4 73 1.7 WSW 6 11 3 6 - - 0.0
07/05:50pm 4.0 0.8 -0.4 73 1.7 WSW 6 9 3 5 - - 0.0
07/05:40pm 4.2 1.0 -0.4 72 1.8 WSW 6 7 3 4 - - 0.0
07/05:30pm 4.3 0.9 -0.6 70 1.9 WSW 7 11 4 6 - - 0.0
07/05:20pm 4.5 1.4 -0.1 72 1.8 WSW 6 9 3 5 - - 0.0
07/05:10pm 4.7 1.5 -0.5 69 2.1 W 6 7 3 4 - - 0.0
07/05:00pm 4.8 1.6 -0.5 68 2.1 W 6 7 3 4 - - 0.0
07/04:50pm 4.9 2.1 -0.1 70 2.0 WSW 4 9 2 5 - - 0.0
07/04:40pm 5.0 1.8 -0.5 67 2.2 WSW 6 9 3 5 - - 0.0
07/04:20pm 5.3 2.1 -0.2 67 2.2 WSW 6 11 3 6 - - 0.0
07/04:10pm 5.4 2.0 -0.3 67 2.3 WSW 7 9 4 5 - - 0.0
07/04:00pm 5.5 2.4 0.3 69 2.1 W 6 9 3 5 - - 0.0
07/03:50pm 5.7 2.6 -0.1 66 2.3 W 6 7 3 4 - - 0.0
07/03:40pm 5.5 2.2 -0.1 67 2.3 WSW 7 11 4 6 - - 0.0
07/03:30pm 5.5 2.2 -0.1 67 2.3 W 7 13 4 7 - - 0.0
07/03:20pm 5.7 2.4 -0.1 66 2.3 WSW 7 11 4 6 - - 0.0
07/03:10pm 6.0 2.3 0.2 66 2.4 SW 9 13 5 7 - - 0.0
07/02:40pm 6.9 3.3 0.3 63 2.7 WSW 9 17 5 9 - - 0.0
07/02:30pm 7.1 3.8 0.2 61 2.9 WSW 7 9 4 5 - - 0.0
07/02:20pm 7.0 3.8 0.5 63 2.7 W 7 9 4 5 - - 0.0
07/02:10pm 7.1 3.8 0.3 62 2.8 W 7 11 4 6 - - 0.0
07/02:00pm 7.6 4.3 0.1 59 3.1 WSW 7 11 4 6 - - 0.0
07/01:50pm 7.9 4.3 0.8 61 3.0 SW 9 17 5 9 - - 0.0
07/01:40pm 7.3 3.3 0.5 62 2.8 WSW 11 17 6 9 - - 0.0
07/01:20pm 7.7 4.4 0.3 59 3.1 WSW 7 15 4 8 - - 0.0
07/01:10pm 7.5 3.4 0.1 59 3.1 WSW 11 15 6 8 - - 0.0
07/01:00pm 7.4 3.9 1.1 64 2.7 WSW 9 15 5 8 - - 0.0
07/12:50pm 7.5 3.4 -0.2 58 3.2 WSW 11 19 6 10 - - 0.0
07/12:40pm 7.4 4.1 0.0 59 3.1 WSW 7 11 4 6 - - 0.0
07/12:30pm 7.5 4.3 0.5 61 2.9 WSW 7 11 4 6 - - 0.0
07/12:20pm 7.2 3.9 -0.1 60 3.0 W 7 13 4 7 - - 0.0
07/12:10pm 6.9 3.7 0.8 65 2.6 W 7 9 4 5 - - 0.0
07/12:00pm 6.4 2.4 0.6 66 2.4 WSW 11 13 6 7 - - 0.0
07/11:50am 6.2 2.1 0.1 65 2.5 SW 11 17 6 9 - - 0.0
07/11:40am 5.8 2.5 0.3 68 2.3 WSW 7 13 4 7 - - 0.0
07/11:30am 5.1 1.0 -0.1 69 2.1 WSW 11 15 6 8 - - 0.0
07/11:20am 5.9 2.6 -0.2 65 2.5 W 7 9 4 5 - - 0.0
07/11:00am 6.0 2.3 -0.3 64 2.5 W 9 13 5 7 - - 0.0
07/10:50am 5.7 2.1 0.4 69 2.2 W 9 13 5 7 - - 0.0
07/10:40am 6.0 1.5 -0.1 65 2.5 WSW 13 20 7 11 - - 0.0
07/10:30am 5.5 1.7 -0.4 66 2.4 WSW 9 13 5 7 - - 0.0
07/10:20am 4.9 1.2 0.2 71 1.9 WSW 9 13 5 7 - - 0.0
07/10:10am 5.5 2.4 1.1 73 1.8 W 7 11 4 6 - - 0.0
07/10:00am 5.2 1.5 -0.1 68 2.1 WSW 9 17 5 9 - - 0.0
07/09:50am 5.1 1.7 -0.6 66 2.3 W 7 13 4 7 - - 0.0
07/09:30am 5.0 1.7 0.2 71 1.9 WSW 7 11 4 6 - - 0.0
07/09:10am 3.8 0.1 0.2 77 1.4 W 9 15 5 8 - - 0.0
07/09:00am 3.7 0.0 0.0 77 1.5 SW 9 13 5 7 - - 0.0
07/08:50am 4.0 0.7 0.1 76 1.6 W 7 11 4 6 - - 0.0
07/08:40am 4.0 0.6 -0.3 73 1.7 W 7 9 4 5 - - 0.0
07/08:30am 3.6 -0.1 -0.2 76 1.5 W 9 19 5 10 - - 0.0
07/08:20am 3.2 -0.5 -0.1 79 1.3 W 9 11 5 6 - - 0.0
07/08:10am 3.2 -0.5 -0.2 78 1.3 WSW 9 13 5 7 - - 0.0
07/08:00am 2.9 -1.2 -0.5 78 1.3 WSW 11 15 6 8 - - 0.0
07/07:50am 3.0 -0.7 0.0 81 1.2 WSW 9 15 5 8 - - 0.0
07/07:30am 3.3 0.0 -0.1 78 1.3 WSW 7 11 4 6 - - 0.0
07/07:20am 2.6 -1.1 -0.1 82 1.1 WSW 9 13 5 7 - - 0.0
07/07:10am 2.7 -0.6 0.2 83 1.0 WSW 7 11 4 6 - - 0.0
07/07:00am 2.9 -0.7 0.4 84 1.0 WSW 9 15 5 8 - - 0.0
07/06:50am 3.2 0.0 0.6 83 1.0 WSW 7 11 4 6 - - 0.0
07/06:40am 3.3 -0.2 1.4 87 0.8 WSW 9 13 5 7 - - 0.0
07/06:30am 3.3 -0.6 1.2 86 0.9 WSW 11 17 6 9 - - 0.0
07/06:20am 3.4 -0.1 1.4 87 0.8 WSW 9 15 5 8 - - 0.0
07/06:10am 3.8 0.4 1.9 87 0.8 WSW 9 17 5 9 - - 0.0
07/06:00am 4.4 1.5 2.6 88 0.8 WSW 7 11 4 6 - - 0.0
07/05:30am 6.4 3.6 5.1 91 0.6 W 9 15 5 8 - - 0.0
07/05:20am 6.6 4.2 5.3 91 0.6 W 7 13 4 7 - - 0.0
07/05:10am 6.6 3.9 5.6 93 0.5 WNW 9 15 5 8 - - 0.0
07/05:00am 6.7 4.0 5.8 94 0.4 WNW 9 11 5 6 - - 0.0
07/04:50am 6.7 4.5 6.1 96 0.3 WNW 7 9 4 5 - - 0.0
07/04:40am 6.6 4.4 6.2 97 0.2 WSW 7 9 4 5 - - 0.0
07/04:30am 6.6 4.0 6.2 97 0.2 W 9 11 5 6 - - 0.0
07/04:20am 6.6 4.0 6.3 98 0.1 W 9 13 5 7 - - 0.0
07/04:10am 6.6 4.6 6.2 97 0.2 WSW 6 9 3 5 - - 0.0
07/04:00am 6.5 4.5 6.1 97 0.2 W 6 9 3 5 - - 0.0
07/03:50am 6.4 4.3 6.0 97 0.2 NNW 6 6 3 3 - - 0.0
07/03:40am 6.3 4.6 5.9 97 0.2 N 4 7 2 4 - - 0.0
07/03:30am 6.3 4.6 5.8 97 0.2 NNW 4 7 2 4 - - 0.0
07/03:20am 6.2 4.5 5.7 97 0.2 NW 4 7 2 4 - - 0.0
07/03:10am 6.2 4.4 5.6 96 0.3 W 4 6 2 3 - - 0.0
07/03:00am 6.3 4.5 5.5 95 0.4 NNW 4 6 2 3 - - 0.0
07/02:50am 6.5 4.7 5.4 93 0.5 WNW 4 9 2 5 - - 0.0
07/02:40am 6.6 4.4 5.2 91 0.6 WNW 6 9 3 5 - - 0.0
07/02:30am 6.6 4.7 5.1 90 0.7 W 4 6 2 3 - - 0.0
07/02:20am 6.8 4.9 5.1 89 0.8 WSW 4 6 2 3 - - 0.0
07/02:10am 7.2 5.2 4.6 83 1.2 W 4 7 2 4 - - 0.0
07/02:00am 7.4 5.3 4.0 79 1.5 W 4 6 2 3 - - 0.0
07/01:50am 7.4 5.3 3.9 78 1.6 WNW 4 6 2 3 - - 0.0
07/01:40am 7.5 5.8 3.8 77 1.7 W 2 4 1 2 - - 0.0
07/01:30am 7.5 5.3 3.6 76 1.8 S 4 6 2 3 - - 0.0
07/01:20am 7.6 5.1 3.6 76 1.8 WSW 6 9 3 5 - - 0.0
07/01:10am 7.5 5.3 3.6 76 1.8 W 4 7 2 4 - - 0.0
07/01:00am 7.5 5.3 3.4 75 1.8 W 4 6 2 3 - - 0.0
07/12:50am 7.5 5.3 3.5 76 1.8 WSW 4 7 2 4 - - 0.0
07/12:40am 7.5 4.9 3.3 75 1.9 W 6 7 3 4 - - 0.0
07/12:30am 7.4 4.8 3.4 76 1.8 W 6 9 3 5 - - 0.0
07/12:20am 7.3 4.7 3.3 76 1.8 W 6 9 3 5 - - 0.0
07/12:10am 7.2 4.4 3.2 76 1.8 W 7 11 4 6 - - 0.0
07/12:00am 6.9 4.3 3.4 78 1.6 W 6 9 3 5 - - 0.0
 
Date/Time
EST
Temp
°C
App
Temp
°C
Dew
Point
°C
Rel
Hum
%
Delta-T
°C
Wind Press
QNH
hPa
Press
MSL
hPa
Rain since
9am
mm
Dir  Spd
km/h
Gust
km/h
Spd
kts
Gust
kts
06/11:50pm 6.7 4.5 3.3 79 1.5 WSW 4 7 2 4 - - 0.0
06/11:40pm 6.4 4.2 3.6 82 1.2 WSW 4 7 2 4 - - 0.0
06/11:20pm 6.3 3.8 3.7 83 1.2 W 6 7 3 4 - - 0.0
06/11:10pm 6.3 3.8 3.8 84 1.1 WSW 6 7 3 4 - - 0.0
06/11:00pm 6.5 4.0 3.9 83 1.2 W 6 7 3 4 - - 0.0
06/10:50pm 6.5 4.0 3.9 83 1.2 WSW 6 7 3 4 - - 0.0
06/10:40pm 6.5 4.0 4.0 84 1.1 W 6 9 3 5 - - 0.0
06/10:30pm 6.6 4.5 4.0 83 1.2 W 4 7 2 4 - - 0.0
06/10:20pm 6.7 4.3 4.1 83 1.2 W 6 7 3 4 - - 0.0
06/10:10pm 6.9 4.8 4.1 82 1.3 WSW 4 9 2 5 - - 0.0
06/10:00pm 7.0 4.9 4.1 82 1.3 W 4 9 2 5 - - 0.0
06/09:50pm 7.1 5.1 4.4 83 1.2 W 4 7 2 4 - - 0.0
06/09:40pm 7.1 5.5 4.7 85 1.1 W 2 6 1 3 - - 0.0
06/09:30pm 7.4 5.1 4.6 82 1.3 WSW 6 7 3 4 - - 0.0
06/09:20pm 7.6 5.3 4.8 82 1.3 W 6 7 3 4 - - 0.0
06/09:10pm 7.9 5.7 5.1 82 1.3 WSW 6 9 3 5 - - 0.0
06/09:00pm 8.1 5.9 5.2 82 1.4 WSW 6 7 3 4 - - 0.0
06/08:50pm 8.3 6.1 5.3 81 1.4 W 6 9 3 5 - - 0.0
06/08:40pm 8.4 6.3 5.6 82 1.3 W 6 9 3 5 - - 0.0
06/08:30pm 8.5 6.4 5.6 82 1.4 WSW 6 9 3 5 - - 0.0
06/08:20pm 8.5 6.2 5.8 83 1.3 WSW 7 9 4 5 - - 0.0
06/08:10pm 8.7 6.4 5.9 82 1.3 WSW 7 13 4 7 - - 0.0
06/08:00pm 9.0 7.0 6.3 83 1.3 WSW 6 7 3 4 - - 0.0
06/07:50pm 9.1 7.6 6.8 85 1.1 WSW 4 7 2 4 - - 0.0
06/07:30pm 9.1 7.6 6.9 86 1.1 SW 4 7 2 4 - - 0.0
06/07:20pm 9.1 8.0 7.1 87 1.0 W 2 4 1 2 - - 0.0
06/07:10pm 9.0 7.9 7.0 87 1.0 NNW 2 4 1 2 - - 0.0
06/07:00pm 9.0 7.9 7.0 87 1.0 WSW 2 7 1 4 - - 0.0
06/06:50pm 8.9 7.5 7.3 90 0.8 SW 4 6 2 3 - - 0.0
06/06:40pm 8.9 7.5 7.2 89 0.8 SSW 4 4 2 2 - - 0.0
06/06:30pm 9.0 7.6 7.3 89 0.8 SW 4 6 2 3 - - 0.0

Other formats

Comma delimited format used in spreadsheet applications
http://www.bom.gov.au/fwo/IDN60801/IDN60801.99790.axf

JavaScript Object Notation format (JSON) in row-major order
http://www.bom.gov.au/fwo/IDN60801/IDN60801.99790.json

Data quality

Most of these data are generated automatically and are frequently updated. Quality checks on data are not normally performed. It is possible for incorrect values to appear. Refer to information at About Latest Weather Observations and please check the disclaimer before using these data.